Time;durP1;ratioP1;P1;durP2;ratioP2;P2;SDS_P1;SDS_P2;PMS_P1;PMS_P2;Temp;Humidity;BMP_temperature;BMP_pressure;BME280_temperature;BME280_humidity;BME280_pressure;Samples;Min_cycle;Max_cycle;Signal;HPM_P1;HPM_P2
2022/06/28 00:01:18;;;;;;;3.77;1.03;;;14.10;99.90;;;;;;5091300;28;20201;-63
2022/06/28 00:03:45;;;;;;;2.70;1.00;;;14.30;99.90;;;;;;5071890;28;20278;-64
2022/06/28 00:06:12;;;;;;;1.30;0.80;;;14.00;99.90;;;;;;5078606;28;20728;-64
2022/06/28 00:08:40;;;;;;;6.17;1.17;;;14.30;99.90;;;;;;5091869;28;20182;-64
2022/06/28 00:11:07;;;;;;;1.50;0.70;;;14.20;99.90;;;;;;5092032;28;20175;-64
2022/06/28 00:13:34;;;;;;;3.53;0.80;;;14.40;99.90;;;;;;5092000;28;20578;-64
2022/06/28 00:16:05;;;;;;;2.10;0.60;;;14.90;99.90;;;;;;5091895;28;20206;-64
2022/06/28 00:18:35;;;;;;;2.00;0.70;;;15.40;99.90;;;;;;5091771;28;20591;-64
2022/06/28 00:21:03;;;;;;;4.17;0.80;;;15.10;99.90;;;;;;5091941;28;20263;-64
2022/06/28 00:23:31;;;;;;;4.30;0.90;;;15.40;99.90;;;;;;5088315;28;20188;-65
2022/06/28 00:25:59;;;;;;;4.40;1.13;;;15.70;99.90;;;;;;5091690;28;20223;-65
2022/06/28 00:28:27;;;;;;;3.93;1.00;;;15.70;99.90;;;;;;5073501;28;20191;-64
2022/06/28 00:30:54;;;;;;;6.47;1.07;;;15.80;99.90;;;;;;5091848;28;20180;-63
2022/06/28 00:33:21;;;;;;;3.30;0.80;;;16.10;99.90;;;;;;5091747;28;20184;-64
2022/06/28 00:35:49;;;;;;;3.67;0.97;;;15.80;99.90;;;;;;5078920;28;20226;-64
2022/06/28 00:38:16;;;;;;;6.03;1.23;;;15.70;99.90;;;;;;5071496;28;20191;-64
2022/06/28 00:40:50;;;;;;;2.97;1.03;;;15.80;99.90;;;;;;5071388;28;20190;-64
2022/06/28 00:43:19;;;;;;;3.00;1.00;;;16.10;99.90;;;;;;5079023;28;20191;-64
2022/06/28 00:45:47;;;;;;;3.97;1.00;;;16.00;99.90;;;;;;5091478;28;20608;-65
2022/06/28 00:48:17;;;;;;;1.47;0.77;;;16.20;99.90;;;;;;5091645;28;20556;-64
2022/06/28 00:50:44;;;;;;;2.83;0.73;;;16.50;99.90;;;;;;5091614;28;20187;-65
2022/06/28 00:53:15;;;;;;;6.20;1.00;;;17.00;99.90;;;;;;5085637;28;20184;-65
2022/06/28 00:55:44;;;;;;;4.33;1.00;;;17.30;99.90;;;;;;5084482;28;20247;-66
2022/06/28 00:58:12;;;;;;;5.87;1.00;;;17.00;99.90;;;;;;5090990;28;20180;-66
2022/06/28 01:00:46;;;;;;;4.47;1.00;;;17.10;99.90;;;;;;5089388;28;20258;-64
2022/06/28 01:03:16;;;;;;;5.23;1.10;;;17.60;99.90;;;;;;5095159;28;20202;-66
2022/06/28 01:05:44;;;;;;;3.60;1.23;;;18.30;99.90;;;;;;5094176;28;20238;-66
2022/06/28 01:08:12;;;;;;;5.20;1.20;;;18.40;99.90;;;;;;5093607;28;20674;-67
2022/06/28 01:10:41;;;;;;;5.23;1.47;;;18.10;99.90;;;;;;5094662;28;20175;-67
2022/06/28 01:13:10;;;;;;;4.63;1.40;;;18.00;99.90;;;;;;5094635;28;20183;-67
2022/06/28 01:15:39;;;;;;;3.47;0.87;;;17.80;99.90;;;;;;5095282;28;20186;-67
2022/06/28 01:18:08;;;;;;;3.40;1.10;;;18.30;99.90;;;;;;5076251;28;20188;-67
2022/06/28 01:20:36;;;;;;;5.47;0.90;;;18.70;99.90;;;;;;5094892;28;20181;-67
2022/06/28 01:23:03;;;;;;;3.73;1.10;;;19.20;99.90;;;;;;5094799;28;20276;-65
2022/06/28 01:25:30;;;;;;;7.07;0.87;;;19.30;99.90;;;;;;5094604;28;20755;-65
2022/06/28 01:27:59;;;;;;;6.67;1.07;;;18.50;99.90;;;;;;5076702;28;20227;-66
2022/06/28 01:30:27;;;;;;;5.10;0.63;;;17.90;99.90;;;;;;5094150;28;20179;-66
2022/06/28 01:32:56;;;;;;;4.03;0.70;;;17.30;99.90;;;;;;5094619;28;20184;-65
2022/06/28 01:35:23;;;;;;;2.37;0.80;;;17.00;99.90;;;;;;5094565;28;20188;-66
2022/06/28 01:37:50;;;;;;;2.77;0.77;;;17.40;99.90;;;;;;5094482;28;20649;-66
2022/06/28 01:40:18;;;;;;;1.63;0.80;;;17.50;99.90;;;;;;5094308;28;20726;-66
2022/06/28 01:42:45;;;;;;;2.47;0.67;;;17.30;99.90;;;;;;5094206;28;20187;-67
2022/06/28 01:45:15;;;;;;;5.50;0.70;;;17.50;99.90;;;;;;5094433;28;20175;-66
2022/06/28 01:47:44;;;;;;;3.33;0.50;;;17.70;99.90;;;;;;5093542;28;20273;-67
2022/06/28 01:50:12;;;;;;;3.20;0.90;;;17.70;99.90;;;;;;5093986;28;20545;-66
2022/06/28 01:52:43;;;;;;;1.33;0.60;;;18.00;99.90;;;;;;5094134;28;20272;-66
2022/06/28 01:55:11;;;;;;;3.47;0.70;;;18.00;99.90;;;;;;5093930;28;20277;-66
2022/06/28 01:57:39;;;;;;;7.93;0.80;;;17.60;99.90;;;;;;5094045;28;20701;-66
2022/06/28 02:00:08;;;;;;;5.77;0.70;;;17.30;99.90;;;;;;5093786;28;20640;-66
2022/06/28 02:02:36;;;;;;;1.17;0.73;;;17.20;99.90;;;;;;5094366;28;20223;-67
2022/06/28 02:05:04;;;;;;;1.87;0.73;;;17.20;99.90;;;;;;5094067;28;20236;-67
2022/06/28 02:07:31;;;;;;;6.70;1.00;;;16.90;99.90;;;;;;5093849;28;20179;-65
2022/06/28 02:09:59;;;;;;;3.13;0.73;;;17.20;99.90;;;;;;5093588;28;20187;-66
2022/06/28 02:12:28;;;;;;;3.93;0.93;;;17.30;99.90;;;;;;5093751;28;20183;-66
2022/06/28 02:14:58;;;;;;;4.83;0.80;;;17.50;99.90;;;;;;5093810;28;20274;-66
2022/06/28 02:17:26;;;;;;;2.00;0.80;;;17.30;99.90;;;;;;5085516;28;20218;-67
2022/06/28 02:19:54;;;;;;;3.40;0.90;;;17.10;99.90;;;;;;5093510;28;20183;-66
2022/06/28 02:22:21;;;;;;;4.40;1.17;;;17.10;99.90;;;;;;5075802;28;20252;-66
2022/06/28 02:24:51;;;;;;;1.50;0.80;;;17.20;99.90;;;;;;5093615;28;20248;-66
2022/06/28 02:27:19;;;;;;;5.37;1.10;;;18.00;99.90;;;;;;5093377;28;20643;-66
2022/06/28 02:29:47;;;;;;;1.90;0.90;;;19.00;99.90;;;;;;5093067;28;20175;-65
2022/06/28 02:32:14;;;;;;;3.00;0.93;;;18.50;99.90;;;;;;5093285;28;20673;-66
2022/06/28 02:40:21;;;;;;;6.03;1.17;;;17.70;99.90;;;;;;5091004;28;20197;-66
2022/06/28 02:42:58;;;;;;;3.03;0.77;;;17.40;99.90;;;;;;5091959;28;20258;-65
2022/06/28 02:45:28;;;;;;;2.70;0.90;;;17.20;99.90;;;;;;5093056;28;20221;-66
2022/06/28 02:47:56;;;;;;;6.33;1.10;;;16.80;99.90;;;;;;5074200;28;20688;-65
2022/06/28 02:50:25;;;;;;;4.07;0.90;;;16.70;99.90;;;;;;5093157;28;20180;-66
2022/06/28 02:52:53;;;;;;;5.10;1.13;;;16.80;99.90;;;;;;5092815;28;20183;-66
2022/06/28 02:55:20;;;;;;;2.27;1.10;;;16.80;99.90;;;;;;5092942;28;20179;-66
2022/06/28 02:57:48;;;;;;;7.57;1.40;;;16.90;99.90;;;;;;5092714;28;20543;-66
2022/06/28 03:00:18;;;;;;;4.50;1.00;;;17.00;99.90;;;;;;5093024;28;20206;-65
2022/06/28 03:02:47;;;;;;;1.80;0.80;;;17.00;99.90;;;;;;5074259;28;20720;-65
2022/06/28 03:05:20;;;;;;;4.77;1.23;;;17.00;99.90;;;;;;5091349;28;20194;-65
2022/06/28 03:07:48;;;;;;;3.33;0.90;;;17.20;99.90;;;;;;5092851;28;20287;-65
2022/06/28 03:10:18;;;;;;;5.43;1.00;;;17.60;99.90;;;;;;5092856;28;20253;-65
2022/06/28 03:12:45;;;;;;;2.80;1.13;;;17.80;99.90;;;;;;5074459;28;20548;-66
2022/06/28 03:15:16;;;;;;;5.07;0.83;;;18.10;99.90;;;;;;5092738;28;20221;-66
2022/06/28 03:17:44;;;;;;;3.17;0.90;;;18.30;99.90;;;;;;5092587;28;20171;-64
2022/06/28 03:20:12;;;;;;;4.17;1.00;;;17.90;99.90;;;;;;5074640;28;20185;-65
2022/06/28 03:22:39;;;;;;;3.83;0.90;;;18.10;99.90;;;;;;5074152;28;20178;-63
2022/06/28 03:25:08;;;;;;;6.13;1.17;;;18.00;99.90;;;;;;5092153;28;20179;-65
2022/06/28 03:27:36;;;;;;;4.40;1.20;;;17.80;99.90;;;;;;5092393;28;20239;-64
2022/06/28 03:30:05;;;;;;;3.47;0.80;;;17.50;99.90;;;;;;5092601;28;20633;-65
2022/06/28 03:32:33;;;;;;;6.67;0.90;;;17.10;99.90;;;;;;5092447;28;20175;-65
2022/06/28 03:35:01;;;;;;;6.63;1.30;;;16.90;99.90;;;;;;5092404;28;20167;-66
2022/06/28 03:37:28;;;;;;;10.90;1.83;;;16.80;99.90;;;;;;5092377;28;20539;-66
2022/06/28 03:39:56;;;;;;;9.70;1.40;;;16.80;99.90;;;;;;5092459;28;20203;-64
2022/06/28 03:42:24;;;;;;;4.97;0.93;;;16.60;99.90;;;;;;5092327;28;20175;-65
2022/06/28 03:44:52;;;;;;;5.07;1.20;;;16.50;99.90;;;;;;5092695;28;20640;-66
2022/06/28 03:47:20;;;;;;;8.33;1.70;;;16.30;99.90;;;;;;5092349;28;20255;-65
2022/06/28 03:49:48;;;;;;;6.03;1.23;;;16.10;99.90;;;;;;5092059;28;20178;-66
2022/06/28 03:52:16;;;;;;;8.20;1.60;;;16.20;99.90;;;;;;5092249;28;20175;-64
2022/06/28 03:54:44;;;;;;;4.43;1.00;;;16.20;99.90;;;;;;5091970;28;20167;-65
2022/06/28 03:57:11;;;;;;;2.60;1.00;;;16.30;99.90;;;;;;5092095;28;20289;-65
2022/06/28 03:59:39;;;;;;;3.70;1.00;;;16.50;99.90;;;;;;5092055;28;20179;-66
2022/06/28 04:02:07;;;;;;;2.67;1.17;;;16.60;99.90;;;;;;5090201;28;20183;-66
2022/06/28 04:04:35;;;;;;;4.87;2.50;;;16.60;99.90;;;;;;5091377;28;20179;-66
2022/06/28 04:07:02;;;;;;;7.07;1.07;;;16.40;99.90;;;;;;5091822;28;20215;-66
2022/06/28 04:09:30;;;;;;;3.20;0.90;;;16.30;99.90;;;;;;5091441;28;20202;-66
2022/06/28 04:11:58;;;;;;;4.20;1.07;;;16.20;99.90;;;;;;5073416;28;20198;-65
2022/06/28 04:14:25;;;;;;;6.10;1.27;;;16.10;99.90;;;;;;5091628;28;20183;-67
2022/06/28 04:16:53;;;;;;;3.73;1.00;;;16.10;99.90;;;;;;5091369;28;20190;-67
2022/06/28 04:19:21;;;;;;;4.63;1.47;;;16.20;99.90;;;;;;5091384;28;20543;-66
2022/06/28 04:21:49;;;;;;;5.13;1.10;;;16.10;99.90;;;;;;5091510;28;20218;-65
2022/06/28 04:24:16;;;;;;;4.60;1.10;;;16.20;99.90;;;;;;5091681;28;20213;-67
2022/06/28 04:26:44;;;;;;;4.00;0.83;;;16.20;99.90;;;;;;5091572;28;20252;-67
2022/06/28 04:29:12;;;;;;;8.77;2.30;;;16.30;99.90;;;;;;5091519;28;20240;-66
2022/06/28 04:31:39;;;;;;;6.47;1.33;;;16.10;99.90;;;;;;5073365;28;20582;-66
2022/06/28 04:34:07;;;;;;;3.60;1.00;;;16.10;99.90;;;;;;5091390;28;20553;-67
2022/06/28 04:36:35;;;;;;;4.70;1.10;;;16.10;99.90;;;;;;5075238;28;20187;-64
2022/06/28 04:39:03;;;;;;;3.47;1.00;;;16.20;99.90;;;;;;5095369;28;20274;-66
2022/06/28 04:41:30;;;;;;;5.80;1.00;;;16.10;99.90;;;;;;5095438;28;20198;-66
2022/06/28 04:43:58;;;;;;;1.87;0.80;;;15.90;99.90;;;;;;5095331;28;20179;-66
2022/06/28 04:46:26;;;;;;;5.90;1.13;;;15.70;99.90;;;;;;5094880;28;20695;-66
2022/06/28 04:48:53;;;;;;;2.23;1.10;;;15.70;99.90;;;;;;5095108;28;20237;-65
2022/06/28 04:51:21;;;;;;;3.43;0.60;;;15.40;99.90;;;;;;5094039;28;20274;-66
2022/06/28 04:53:49;;;;;;;1.90;0.70;;;15.40;99.90;;;;;;5076578;28;20210;-67
2022/06/28 04:56:17;;;;;;;0.97;0.60;;;15.20;99.90;;;;;;5094904;28;20218;-66
2022/06/28 04:58:45;;;;;;;2.93;0.70;;;15.00;99.90;;;;;;5095373;28;20187;-66
2022/06/28 05:01:12;;;;;;;5.13;1.43;;;15.00;99.90;;;;;;5077301;28;20183;-66
2022/06/28 05:03:42;;;;;;;4.00;1.03;;;15.10;99.90;;;;;;5095399;28;20183;-66
2022/06/28 05:06:10;;;;;;;3.30;0.83;;;15.20;99.90;;;;;;5095348;28;20238;-66
2022/06/28 05:08:38;;;;;;;5.80;1.00;;;15.40;99.90;;;;;;5095166;28;20324;-67
2022/06/28 05:11:07;;;;;;;6.10;0.90;;;15.60;99.90;;;;;;5076976;28;20269;-66
2022/06/28 05:13:36;;;;;;;2.67;0.77;;;15.90;99.90;;;;;;5095079;28;20206;-64
2022/06/28 05:16:04;;;;;;;2.50;0.90;;;16.00;99.90;;;;;;5076993;28;20187;-69
2022/06/28 05:18:31;;;;;;;2.33;0.70;;;15.80;99.90;;;;;;5094958;28;20178;-66
2022/06/28 05:20:59;;;;;;;2.77;1.10;;;15.70;99.90;;;;;;5094722;28;20183;-66
2022/06/28 05:23:27;;;;;;;4.63;1.10;;;15.80;99.90;;;;;;5094923;28;20179;-66
2022/06/28 05:25:55;;;;;;;4.80;1.23;;;15.70;99.90;;;;;;5094809;28;20246;-66
2022/06/28 05:28:23;;;;;;;2.87;1.00;;;15.60;99.90;;;;;;5094955;28;20256;-67
2022/06/28 05:30:51;;;;;;;5.73;1.07;;;15.40;99.90;;;;;;5094656;28;20174;-66
2022/06/28 05:33:18;;;;;;;1.80;0.93;;;15.40;99.90;;;;;;5095032;28;20601;-66
2022/06/28 05:35:46;;;;;;;5.87;1.33;;;15.40;99.90;;;;;;5094747;28;20216;-66
2022/06/28 05:38:14;;;;;;;4.10;1.30;;;15.30;99.90;;;;;;5094807;28;20183;-66
2022/06/28 05:40:42;;;;;;;4.70;1.30;;;15.30;99.90;;;;;;5094065;28;20179;-65
2022/06/28 05:43:09;;;;;;;5.20;1.40;;;15.20;99.90;;;;;;5094632;28;20645;-66
2022/06/28 05:45:37;;;;;;;9.83;2.40;;;15.20;99.90;;;;;;5076159;28;20609;-66
2022/06/28 05:48:05;;;;;;;6.27;2.30;;;15.10;99.90;;;;;;5094136;28;20262;-66
2022/06/28 05:50:34;;;;;;;7.87;2.20;;;15.10;99.90;;;;;;5094290;28;20179;-64
2022/06/28 05:53:01;;;;;;;5.23;1.63;;;15.10;99.90;;;;;;5039980;28;20200;-65
2022/06/28 05:55:30;;;;;;;5.47;1.53;;;15.10;99.90;;;;;;5074185;28;20180;-66
2022/06/28 05:57:58;;;;;;;7.00;1.30;;;15.10;99.90;;;;;;5056129;28;20202;-66
2022/06/28 06:00:26;;;;;;;11.20;1.30;;;15.10;99.90;;;;;;5086119;28;20652;-65
2022/06/28 06:02:54;;;;;;;9.63;1.33;;;15.20;99.90;;;;;;5083787;28;20180;-65
2022/06/28 06:05:21;;;;;;;3.80;1.00;;;15.20;99.90;;;;;;5076418;28;20212;-66
2022/06/28 06:07:49;;;;;;;4.93;1.20;;;15.10;99.90;;;;;;5093907;28;20700;-66
2022/06/28 06:10:17;;;;;;;6.03;1.10;;;15.10;99.90;;;;;;5094258;28;20163;-66
2022/06/28 06:12:44;;;;;;;2.10;1.00;;;15.10;99.90;;;;;;5093584;28;20191;-67
2022/06/28 06:15:12;;;;;;;10.43;1.50;;;15.00;99.90;;;;;;5094052;28;20179;-67
2022/06/28 06:17:40;;;;;;;7.40;1.60;;;15.00;99.90;;;;;;5093117;28;20608;-66
2022/06/28 06:20:08;;;;;;;5.90;1.77;;;15.00;99.90;;;;;;5081387;28;20222;-66
2022/06/28 06:22:36;;;;;;;7.00;1.50;;;14.90;99.90;;;;;;5089729;28;20248;-67
2022/06/28 06:25:05;;;;;;;4.03;1.80;;;14.90;99.90;;;;;;5093858;28;20176;-67
2022/06/28 06:27:33;;;;;;;4.63;1.50;;;14.90;99.90;;;;;;5093634;28;20234;-65
2022/06/28 06:30:01;;;;;;;6.37;1.43;;;14.80;99.90;;;;;;5075418;28;20175;-65
2022/06/28 06:32:28;;;;;;;5.43;1.70;;;14.70;99.90;;;;;;5093282;28;20195;-65
2022/06/28 06:34:56;;;;;;;2.87;1.30;;;14.70;99.90;;;;;;5090305;28;20194;-65
2022/06/28 06:37:24;;;;;;;5.23;1.50;;;14.60;99.90;;;;;;5092738;28;20274;-65
2022/06/28 06:39:52;;;;;;;8.53;1.73;;;14.70;99.90;;;;;;5061139;28;20271;-65
2022/06/28 06:42:20;;;;;;;5.93;1.30;;;14.60;99.90;;;;;;5066193;28;20674;-66
2022/06/28 06:44:48;;;;;;;3.63;1.30;;;14.60;99.90;;;;;;5093332;28;20171;-65
2022/06/28 06:47:15;;;;;;;6.43;1.73;;;14.50;99.90;;;;;;5092999;28;20217;-66
2022/06/28 06:49:43;;;;;;;4.93;2.03;;;14.50;99.90;;;;;;5093111;28;20183;-66
2022/06/28 06:52:11;;;;;;;4.20;1.50;;;14.50;99.90;;;;;;5093468;28;20197;-66
2022/06/28 06:54:39;;;;;;;9.13;1.80;;;14.40;99.90;;;;;;5092938;28;20175;-66
2022/06/28 06:57:07;;;;;;;4.70;1.63;;;14.40;99.90;;;;;;5074385;28;20661;-66
2022/06/28 06:59:35;;;;;;;4.13;1.50;;;14.30;99.90;;;;;;5082075;28;20653;-66
2022/06/28 07:02:03;;;;;;;4.57;2.10;;;14.30;99.90;;;;;;5083227;28;20181;-66
2022/06/28 07:04:31;;;;;;;5.60;1.80;;;14.20;99.90;;;;;;5081524;28;20208;-66
2022/06/28 07:07:00;;;;;;;4.70;1.80;;;14.20;99.90;;;;;;5084797;28;20214;-66
2022/06/28 07:09:28;;;;;;;7.10;1.97;;;14.20;99.90;;;;;;5085962;28;20210;-66
2022/06/28 07:11:55;;;;;;;10.47;1.97;;;14.20;99.90;;;;;;5084234;28;20209;-66
2022/06/28 07:14:23;;;;;;;3.70;2.17;;;14.20;99.90;;;;;;5081522;28;20175;-66
2022/06/28 07:16:51;;;;;;;6.77;2.00;;;14.20;99.90;;;;;;5063260;28;20262;-66
2022/06/28 07:19:19;;;;;;;2.47;1.87;;;14.20;99.90;;;;;;5092796;28;20173;-66
2022/06/28 07:21:46;;;;;;;4.63;1.93;;;14.10;99.90;;;;;;5092937;28;20261;-66
2022/06/28 07:24:14;;;;;;;4.33;2.00;;;14.10;99.90;;;;;;5092578;28;20177;-66
2022/06/28 07:26:42;;;;;;;7.10;2.03;;;14.00;99.90;;;;;;5092552;28;20248;-66
2022/06/28 07:29:09;;;;;;;4.83;2.20;;;14.00;99.90;;;;;;5092795;28;20174;-67
2022/06/28 07:31:37;;;;;;;5.93;1.70;;;13.90;99.90;;;;;;5092795;28;20175;-66
2022/06/28 07:34:05;;;;;;;8.43;2.20;;;13.90;99.90;;;;;;5092570;28;20240;-67
2022/06/28 07:36:33;;;;;;;4.90;1.80;;;13.80;99.90;;;;;;5092352;28;20661;-66
2022/06/28 07:39:00;;;;;;;2.50;1.33;;;13.80;99.90;;;;;;5092613;28;20181;-66
2022/06/28 07:41:28;;;;;;;5.00;1.30;;;13.70;99.90;;;;;;5092574;28;20224;-66
2022/06/28 07:43:56;;;;;;;5.27;1.57;;;13.70;99.90;;;;;;5092473;28;20174;-66
2022/06/28 07:46:24;;;;;;;5.87;1.70;;;13.60;99.90;;;;;;5092467;28;20216;-66
2022/06/28 07:48:52;;;;;;;4.43;1.70;;;13.60;99.90;;;;;;5092409;28;20785;-65
2022/06/28 07:54:06;;;;;;;4.07;1.70;;;13.60;99.90;;;;;;5078361;28;20241;-66
2022/06/28 07:56:34;;;;;;;8.17;3.20;;;13.70;99.90;;;;;;5078657;28;20637;-66
2022/06/28 07:59:02;;;;;;;6.63;2.17;;;13.70;99.90;;;;;;5077314;28;20538;-66
2022/06/28 08:01:30;;;;;;;6.23;1.80;;;13.70;99.90;;;;;;5085494;28;20175;-66
2022/06/28 08:03:57;;;;;;;4.50;1.60;;;13.70;99.90;;;;;;5072614;28;20183;-66
2022/06/28 08:06:25;;;;;;;4.17;1.47;;;13.70;99.90;;;;;;5088904;28;20233;-67
2022/06/28 08:08:53;;;;;;;2.60;1.60;;;13.60;99.90;;;;;;5073989;28;20591;-66
2022/06/28 08:11:21;;;;;;;5.40;1.80;;;13.70;99.90;;;;;;5092047;28;20189;-66
2022/06/28 08:13:50;;;;;;;7.43;1.47;;;13.60;99.90;;;;;;5091553;28;20179;-67
2022/06/28 08:16:17;;;;;;;5.30;2.07;;;13.60;99.90;;;;;;5073575;28;20194;-66
2022/06/28 08:18:46;;;;;;;6.87;2.17;;;13.60;99.90;;;;;;5091952;28;20214;-67
2022/06/28 08:21:14;;;;;;;5.57;1.73;;;13.60;99.90;;;;;;5073797;28;20543;-66
2022/06/28 08:23:41;;;;;;;7.30;1.90;;;13.60;99.90;;;;;;5092071;28;20197;-66
2022/06/28 08:26:09;;;;;;;5.37;2.17;;;13.70;99.90;;;;;;5085437;28;20221;-65
2022/06/28 08:28:37;;;;;;;5.10;1.70;;;13.60;99.90;;;;;;5091365;28;20190;-66
2022/06/28 08:31:05;;;;;;;9.70;2.07;;;13.50;99.90;;;;;;5091933;28;20272;-66
2022/06/28 08:33:32;;;;;;;6.43;1.90;;;13.50;99.90;;;;;;5091829;28;20179;-66
2022/06/28 08:36:00;;;;;;;13.40;2.17;;;13.50;99.90;;;;;;5091680;28;20542;-66
2022/06/28 08:38:28;;;;;;;5.60;1.80;;;13.50;99.90;;;;;;5088537;28;20667;-66
2022/06/28 08:40:56;;;;;;;6.13;1.80;;;13.50;99.90;;;;;;5088394;28;20193;-67
2022/06/28 08:43:24;;;;;;;8.23;2.00;;;13.50;99.90;;;;;;5089430;28;20186;-66
2022/06/28 08:45:53;;;;;;;8.20;2.07;;;13.50;99.90;;;;;;5091792;28;20228;-67
2022/06/28 08:48:39;;;;;;;11.23;2.20;;;13.40;99.90;;;;;;5091599;28;20358;-67
2022/06/28 08:51:09;;;;;;;3.27;1.90;;;13.50;99.90;;;;;;5071741;28;20176;-66
2022/06/28 08:53:41;;;;;;;8.93;2.37;;;13.40;99.90;;;;;;5071619;28;20179;-67
2022/06/28 08:56:10;;;;;;;5.17;1.90;;;13.40;99.90;;;;;;5071352;28;20183;-67
2022/06/28 08:58:43;;;;;;;7.03;2.33;;;13.40;99.90;;;;;;5038955;28;20554;-66
2022/06/28 09:01:12;;;;;;;8.63;2.17;;;13.40;99.90;;;;;;5064708;28;20652;-69
2022/06/28 09:03:46;;;;;;;7.60;2.13;;;13.40;99.90;;;;;;5082942;28;20207;-66
2022/06/28 09:06:14;;;;;;;11.57;2.53;;;13.30;99.90;;;;;;5080603;28;20213;-66
2022/06/28 09:08:41;;;;;;;10.70;2.13;;;13.30;99.90;;;;;;5080421;28;20182;-66
2022/06/28 09:11:09;;;;;;;5.20;1.53;;;13.20;99.90;;;;;;5084633;28;20184;-66
2022/06/28 09:13:40;;;;;;;6.27;2.03;;;13.20;99.90;;;;;;5081072;28;20171;-66
2022/06/28 09:16:08;;;;;;;5.77;1.83;;;13.20;99.90;;;;;;5079937;28;20179;-66
2022/06/28 09:18:38;;;;;;;5.93;2.20;;;13.20;99.90;;;;;;5083246;28;20740;-66
2022/06/28 09:21:09;;;;;;;6.77;1.90;;;13.20;99.90;;;;;;5082105;28;20211;-66
2022/06/28 09:23:42;;;;;;;7.33;2.00;;;13.20;99.90;;;;;;5083941;28;20181;-66
2022/06/28 09:26:17;;;;;;;6.43;1.80;;;13.20;99.90;;;;;;5085104;28;20202;-67
2022/06/28 09:28:47;;;;;;;4.87;1.67;;;13.20;99.90;;;;;;5085422;28;20265;-66
2022/06/28 09:31:25;;;;;;;3.13;1.73;;;13.10;99.90;;;;;;5069492;28;20174;-66
2022/06/28 09:34:02;;;;;;;3.47;1.80;;;13.10;99.90;;;;;;5082399;28;20252;-66
2022/06/28 09:36:38;;;;;;;3.60;2.13;;;13.10;99.90;;;;;;5074469;28;20603;-66
2022/06/28 09:39:19;;;;;;;5.73;1.80;;;13.10;99.90;;;;;;5076581;28;20179;-66
2022/06/28 09:41:54;;;;;;;5.73;2.03;;;13.10;99.90;;;;;;5094989;28;20167;-66
2022/06/28 09:44:27;;;;;;;5.93;2.23;;;13.10;99.90;;;;;;5094843;28;20308;-67
2022/06/28 09:46:57;;;;;;;7.47;1.90;;;13.20;99.90;;;;;;5076388;28;20316;-66
2022/06/28 09:49:30;;;;;;;8.40;2.10;;;13.10;99.90;;;;;;5094357;28;20656;-66
2022/06/28 09:52:00;;;;;;;9.90;2.30;;;13.10;99.90;;;;;;5094710;28;20177;-66
2022/06/28 09:54:30;;;;;;;8.07;2.53;;;13.20;99.90;;;;;;5094311;28;20228;-67
2022/06/28 09:56:59;;;;;;;5.43;2.87;;;13.10;99.90;;;;;;5094442;28;20176;-67
2022/06/28 09:59:28;;;;;;;4.47;2.73;;;13.10;99.90;;;;;;5094287;28;20264;-66
2022/06/28 10:01:57;;;;;;;8.90;3.30;;;13.20;99.90;;;;;;5094077;28;20179;-66
2022/06/28 10:04:27;;;;;;;14.07;3.30;;;13.20;99.90;;;;;;5095415;28;20181;-66
2022/06/28 10:06:55;;;;;;;7.30;2.83;;;13.10;99.90;;;;;;5095468;28;20209;-67
2022/06/28 10:09:23;;;;;;;7.70;3.23;;;13.20;99.90;;;;;;5095318;28;20175;-66
2022/06/28 10:17:34;;;;;;;10.80;4.27;;;13.20;99.90;;;;;;5095478;28;20278;-68
2022/06/28 10:20:10;;;;;;;12.83;4.43;;;13.20;99.90;;;;;;5095716;28;20223;-67
2022/06/28 10:22:38;;;;;;;7.40;2.90;;;13.20;99.90;;;;;;5094783;28;20178;-67
2022/06/28 10:25:20;;;;;;;5.83;2.53;;;13.20;99.90;;;;;;5095199;28;20196;-67
2022/06/28 10:27:54;;;;;;;9.40;2.63;;;13.20;99.90;;;;;;5094816;28;20555;-67
2022/06/28 10:30:27;;;;;;;8.23;2.47;;;13.20;99.90;;;;;;5094978;28;20643;-67
2022/06/28 10:33:06;;;;;;;6.53;2.30;;;13.20;99.90;;;;;;5094250;28;20670;-67
2022/06/28 10:35:36;;;;;;;4.83;1.60;;;13.20;99.90;;;;;;5082906;28;20545;-66
2022/06/28 10:38:10;;;;;;;3.90;1.90;;;13.10;99.90;;;;;;5091676;28;20301;-66
2022/06/28 10:40:49;;;;;;;8.43;2.30;;;13.10;99.90;;;;;;5084183;28;20174;-65
2022/06/28 10:43:46;;;;;;;5.17;2.07;;;13.10;99.90;;;;;;5088960;28;20659;-66
2022/06/28 10:46:14;;;;;;;5.17;2.43;;;13.10;99.90;;;;;;5094678;28;20211;-66
2022/06/28 10:48:51;;;;;;;4.63;2.77;;;13.00;99.90;;;;;;5094598;28;20173;-66
2022/06/28 10:51:20;;;;;;;5.03;2.47;;;13.00;99.90;;;;;;5094881;28;20211;-67
2022/06/28 10:53:57;;;;;;;5.97;2.90;;;13.00;99.90;;;;;;5085475;28;20175;-66
2022/06/28 10:56:25;;;;;;;4.60;2.73;;;13.00;99.90;;;;;;5080538;28;20192;-67
2022/06/28 10:58:56;;;;;;;8.23;2.60;;;13.00;99.90;;;;;;5085573;28;20640;-67
2022/06/28 11:01:44;;;;;;;7.27;2.60;;;13.00;99.90;;;;;;5094331;28;20188;-66
2022/06/28 11:04:19;;;;;;;5.67;2.03;;;12.90;99.90;;;;;;5094745;28;20177;-67
2022/06/28 11:06:53;;;;;;;7.37;2.90;;;12.90;99.90;;;;;;5093900;28;20213;-67
2022/06/28 11:09:59;;;;;;;3.87;2.50;;;12.90;99.90;;;;;;5076200;28;20588;-67
2022/06/28 11:12:30;;;;;;;4.37;2.30;;;12.90;99.90;;;;;;5089616;28;20249;-66
2022/06/28 11:15:09;;;;;;;4.30;2.10;;;12.90;99.90;;;;;;5094384;28;20179;-65
2022/06/28 11:17:44;;;;;;;9.33;2.70;;;12.90;99.90;;;;;;5094000;28;20175;-66
2022/06/28 11:20:15;;;;;;;6.27;2.40;;;12.90;99.90;;;;;;5087241;28;20194;-65
2022/06/28 11:22:45;;;;;;;7.33;2.20;;;12.90;99.90;;;;;;5082438;28;20230;-67
2022/06/28 11:25:17;;;;;;;4.67;1.83;;;12.90;99.90;;;;;;5082940;28;20215;-66
2022/06/28 11:27:52;;;;;;;5.70;2.20;;;12.90;99.90;;;;;;5060975;28;20641;-67
2022/06/28 11:30:21;;;;;;;6.20;2.27;;;12.90;99.90;;;;;;5062068;28;20175;-66
2022/06/28 11:32:50;;;;;;;5.50;2.47;;;12.80;99.90;;;;;;5062349;28;20178;-66
2022/06/28 11:35:27;;;;;;;6.60;2.37;;;12.90;99.90;;;;;;5065066;28;20263;-66
2022/06/28 11:38:03;;;;;;;10.17;2.53;;;12.80;99.90;;;;;;5073387;28;20186;-66
2022/06/28 11:40:41;;;;;;;5.33;1.90;;;12.80;99.90;;;;;;5073440;28;20222;-66
2022/06/28 11:43:11;;;;;;;5.27;1.70;;;12.80;99.90;;;;;;5073284;28;20174;-65
2022/06/28 11:45:44;;;;;;;10.23;2.30;;;12.80;99.90;;;;;;5073128;28;20728;-66
2022/06/28 11:48:16;;;;;;;4.03;2.00;;;12.80;99.90;;;;;;5073617;28;20181;-67
2022/06/28 11:50:56;;;;;;;5.40;2.47;;;12.70;99.90;;;;;;5073392;28;20535;-65
2022/06/28 11:53:25;;;;;;;7.63;2.20;;;12.70;99.90;;;;;;5073255;28;20532;-66
2022/06/28 11:55:58;;;;;;;6.90;2.20;;;12.70;99.90;;;;;;5073268;28;20202;-68
2022/06/28 11:58:27;;;;;;;4.20;1.50;;;12.70;99.90;;;;;;5073258;28;20177;-66
2022/06/28 12:01:12;;;;;;;8.47;2.53;;;12.70;99.90;;;;;;5073290;28;20185;-68
2022/06/28 12:03:43;;;;;;;5.10;2.00;;;12.60;99.90;;;;;;5073338;28;20178;-67
2022/06/28 12:06:30;;;;;;;5.67;1.97;;;12.50;99.90;;;;;;5073463;28;20225;-67
2022/06/28 12:09:09;;;;;;;4.97;2.03;;;12.40;99.90;;;;;;5071663;28;20274;-67
2022/06/28 12:11:45;;;;;;;3.43;1.93;;;12.50;99.90;;;;;;5073389;28;20228;-66
2022/06/28 12:14:15;;;;;;;4.30;1.60;;;12.30;99.90;;;;;;5073454;28;20171;-67
2022/06/28 12:16:52;;;;;;;3.07;1.40;;;12.20;99.90;;;;;;5072379;28;20193;-66
2022/06/28 12:19:35;;;;;;;4.63;1.60;;;12.10;99.90;;;;;;5073074;28;20634;-66
2022/06/28 12:22:08;;;;;;;4.13;1.30;;;12.00;99.90;;;;;;5073082;28;20264;-65
2022/06/28 12:24:46;;;;;;;5.27;1.93;;;11.90;99.90;;;;;;5071573;28;20272;-65
2022/06/28 12:27:23;;;;;;;4.87;2.60;;;11.80;99.90;;;;;;5083448;28;20218;-65
2022/06/28 12:29:52;;;;;;;4.57;2.40;;;11.80;99.90;;;;;;5093621;28;20190;-65
2022/06/28 12:32:21;;;;;;;4.50;1.50;;;11.80;99.90;;;;;;5093053;28;20195;-67
2022/06/28 12:34:56;;;;;;;7.40;1.80;;;11.70;99.90;;;;;;5092979;28;20763;-65
2022/06/28 12:37:25;;;;;;;6.37;1.37;;;11.70;99.90;;;;;;5092775;28;20535;-66
2022/06/28 12:39:54;;;;;;;4.77;2.20;;;11.70;99.90;;;;;;5092855;28;20520;-66
2022/06/28 12:42:22;;;;;;;3.47;1.93;;;11.70;99.90;;;;;;5093236;28;20185;-67
2022/06/28 12:44:49;;;;;;;4.47;2.13;;;11.80;99.90;;;;;;5092401;28;20188;-67
2022/06/28 12:47:17;;;;;;;5.77;1.90;;;11.80;99.90;;;;;;5091900;28;20212;-67
2022/06/28 12:49:45;;;;;;;3.30;1.60;;;11.80;99.90;;;;;;5092950;28;20174;-66
2022/06/28 12:52:13;;;;;;;4.27;1.70;;;11.80;99.90;;;;;;5092511;28;20183;-67
2022/06/28 12:54:40;;;;;;;4.50;1.87;;;11.90;99.90;;;;;;5092652;28;20186;-67
2022/06/28 12:57:08;;;;;;;8.17;1.97;;;11.90;99.90;;;;;;5075333;28;20190;-67
2022/06/28 12:59:36;;;;;;;3.63;1.50;;;11.80;99.90;;;;;;5096722;28;20665;-66
2022/06/28 13:02:04;;;;;;;1.93;1.43;;;11.70;99.90;;;;;;5096526;28;20267;-67
2022/06/28 13:04:31;;;;;;;4.13;1.43;;;11.70;99.90;;;;;;5096681;28;20258;-67
2022/06/28 13:06:59;;;;;;;4.93;1.80;;;11.60;99.90;;;;;;5096499;28;20269;-67
2022/06/28 13:09:29;;;;;;;4.47;2.10;;;11.60;99.90;;;;;;5096273;28;20238;-67
2022/06/28 13:11:56;;;;;;;4.40;1.77;;;11.50;99.90;;;;;;5096258;28;20182;-67